sensor_id;sensor_type;location;lat;lon;timestamp;temperature;humidity
30889;DHT22;51092;50.874;7.024;2023-08-30T00:00:23;14.70;99.90
30889;DHT22;51092;50.874;7.024;2023-08-30T00:01:28;14.70;99.90
30889;DHT22;51092;50.874;7.024;2023-08-30T00:02:29;14.70;99.90
30889;DHT22;51092;50.874;7.024;2023-08-30T00:03:32;14.70;99.90
30889;DHT22;51092;50.874;7.024;2023-08-30T00:04:34;14.70;99.90
30889;DHT22;51092;50.874;7.024;2023-08-30T00:05:38;14.60;99.90
30889;DHT22;51092;50.874;7.024;2023-08-30T00:06:41;14.60;99.90
30889;DHT22;51092;50.874;7.024;2023-08-30T00:07:42;14.60;99.90
30889;DHT22;51092;50.874;7.024;2023-08-30T00:08:44;14.60;99.90
30889;DHT22;51092;50.874;7.024;2023-08-30T00:09:46;14.70;99.90
30889;DHT22;51092;50.874;7.024;2023-08-30T00:10:49;14.70;99.90
30889;DHT22;51092;50.874;7.024;2023-08-30T00:11:50;14.80;99.90
30889;DHT22;51092;50.874;7.024;2023-08-30T00:12:53;14.80;99.90
30889;DHT22;51092;50.874;7.024;2023-08-30T00:14:02;14.80;99.90
30889;DHT22;51092;50.874;7.024;2023-08-30T00:15:06;14.80;99.90
30889;DHT22;51092;50.874;7.024;2023-08-30T00:16:08;14.80;99.90
30889;DHT22;51092;50.874;7.024;2023-08-30T00:17:11;14.80;99.90
30889;DHT22;51092;50.874;7.024;2023-08-30T00:18:12;14.80;99.90
30889;DHT22;51092;50.874;7.024;2023-08-30T00:19:14;14.80;99.90
30889;DHT22;51092;50.874;7.024;2023-08-30T00:20:16;14.80;99.90
30889;DHT22;51092;50.874;7.024;2023-08-30T00:21:18;14.80;99.90
30889;DHT22;51092;50.874;7.024;2023-08-30T00:22:21;14.70;99.90
30889;DHT22;51092;50.874;7.024;2023-08-30T00:23:25;14.70;99.90
30889;DHT22;51092;50.874;7.024;2023-08-30T00:24:26;14.70;99.90
30889;DHT22;51092;50.874;7.024;2023-08-30T00:25:29;14.70;99.90
30889;DHT22;51092;50.874;7.024;2023-08-30T00:26:31;14.70;99.90
30889;DHT22;51092;50.874;7.024;2023-08-30T00:27:33;14.70;99.90
30889;DHT22;51092;50.874;7.024;2023-08-30T00:28:34;14.80;99.90
30889;DHT22;51092;50.874;7.024;2023-08-30T00:29:37;14.80;99.90
30889;DHT22;51092;50.874;7.024;2023-08-30T00:30:38;14.80;99.90
30889;DHT22;51092;50.874;7.024;2023-08-30T00:31:41;14.80;99.90
30889;DHT22;51092;50.874;7.024;2023-08-30T00:32:44;14.80;99.90
30889;DHT22;51092;50.874;7.024;2023-08-30T00:33:48;14.80;99.90
30889;DHT22;51092;50.874;7.024;2023-08-30T00:34:50;14.90;99.90
30889;DHT22;51092;50.874;7.024;2023-08-30T00:35:56;14.80;99.90
30889;DHT22;51092;50.874;7.024;2023-08-30T00:36:58;14.80;99.90
30889;DHT22;51092;50.874;7.024;2023-08-30T00:38:00;14.80;99.90
30889;DHT22;51092;50.874;7.024;2023-08-30T00:39:02;14.80;99.90
30889;DHT22;51092;50.874;7.024;2023-08-30T00:40:06;14.80;99.90
30889;DHT22;51092;50.874;7.024;2023-08-30T00:41:08;14.90;99.90
30889;DHT22;51092;50.874;7.024;2023-08-30T00:42:10;14.90;99.90
30889;DHT22;51092;50.874;7.024;2023-08-30T00:43:12;14.90;99.90
30889;DHT22;51092;50.874;7.024;2023-08-30T00:44:13;14.90;99.90
30889;DHT22;51092;50.874;7.024;2023-08-30T00:45:16;14.90;99.90
30889;DHT22;51092;50.874;7.024;2023-08-30T00:46:17;14.90;99.90
30889;DHT22;51092;50.874;7.024;2023-08-30T00:47:21;14.90;99.90
30889;DHT22;51092;50.874;7.024;2023-08-30T00:48:24;15.00;99.90
30889;DHT22;51092;50.874;7.024;2023-08-30T00:49:26;15.00;99.90
30889;DHT22;51092;50.874;7.024;2023-08-30T00:50:28;15.00;99.90
30889;DHT22;51092;50.874;7.024;2023-08-30T00:51:31;15.00;99.90
30889;DHT22;51092;50.874;7.024;2023-08-30T00:52:32;15.00;99.90
30889;DHT22;51092;50.874;7.024;2023-08-30T00:53:35;15.00;99.90
30889;DHT22;51092;50.874;7.024;2023-08-30T00:54:37;15.00;99.90
30889;DHT22;51092;50.874;7.024;2023-08-30T00:55:41;15.10;99.90
30889;DHT22;51092;50.874;7.024;2023-08-30T00:56:43;15.10;99.90
30889;DHT22;51092;50.874;7.024;2023-08-30T00:57:47;15.10;99.90
30889;DHT22;51092;50.874;7.024;2023-08-30T00:58:49;15.20;99.90
30889;DHT22;51092;50.874;7.024;2023-08-30T00:59:53;15.20;99.90
30889;DHT22;51092;50.874;7.024;2023-08-30T01:00:55;15.20;99.90
30889;DHT22;51092;50.874;7.024;2023-08-30T01:01:59;15.20;99.90
30889;DHT22;51092;50.874;7.024;2023-08-30T01:03:00;15.20;99.90
30889;DHT22;51092;50.874;7.024;2023-08-30T01:04:05;15.20;99.90
30889;DHT22;51092;50.874;7.024;2023-08-30T01:05:07;15.20;99.90
30889;DHT22;51092;50.874;7.024;2023-08-30T01:06:10;15.20;99.90
30889;DHT22;51092;50.874;7.024;2023-08-30T01:07:12;15.20;99.90
30889;DHT22;51092;50.874;7.024;2023-08-30T01:08:15;15.20;99.90
30889;DHT22;51092;50.874;7.024;2023-08-30T01:09:16;15.20;99.90
30889;DHT22;51092;50.874;7.024;2023-08-30T01:10:25;15.20;99.90
30889;DHT22;51092;50.874;7.024;2023-08-30T01:11:34;15.30;99.90
30889;DHT22;51092;50.874;7.024;2023-08-30T01:12:42;15.30;99.90
30889;DHT22;51092;50.874;7.024;2023-08-30T01:13:50;15.30;99.90
30889;DHT22;51092;50.874;7.024;2023-08-30T01:14:57;15.30;99.90
30889;DHT22;51092;50.874;7.024;2023-08-30T01:16:00;15.30;99.90
30889;DHT22;51092;50.874;7.024;2023-08-30T01:17:03;15.30;99.90
30889;DHT22;51092;50.874;7.024;2023-08-30T01:18:06;15.30;99.90
30889;DHT22;51092;50.874;7.024;2023-08-30T01:19:24;15.40;99.90
30889;DHT22;51092;50.874;7.024;2023-08-30T01:20:27;15.30;99.90
30889;DHT22;51092;50.874;7.024;2023-08-30T01:23:00;15.30;99.90
30889;DHT22;51092;50.874;7.024;2023-08-30T01:24:07;15.30;99.90
30889;DHT22;51092;50.874;7.024;2023-08-30T01:25:24;15.30;99.90
30889;DHT22;51092;50.874;7.024;2023-08-30T01:26:38;15.30;99.90
30889;DHT22;51092;50.874;7.024;2023-08-30T01:27:45;15.30;99.90
30889;DHT22;51092;50.874;7.024;2023-08-30T01:28:48;15.30;99.90
30889;DHT22;51092;50.874;7.024;2023-08-30T01:29:54;15.30;99.90
30889;DHT22;51092;50.874;7.024;2023-08-30T01:30:55;15.30;99.90
30889;DHT22;51092;50.874;7.024;2023-08-30T01:31:59;15.30;99.90
30889;DHT22;51092;50.874;7.024;2023-08-30T01:33:01;15.30;99.90
30889;DHT22;51092;50.874;7.024;2023-08-30T01:34:04;15.40;99.90
30889;DHT22;51092;50.874;7.024;2023-08-30T01:35:07;15.40;99.90
30889;DHT22;51092;50.874;7.024;2023-08-30T01:36:09;15.40;99.90
30889;DHT22;51092;50.874;7.024;2023-08-30T01:37:12;15.40;99.90
30889;DHT22;51092;50.874;7.024;2023-08-30T01:38:15;15.40;99.90
30889;DHT22;51092;50.874;7.024;2023-08-30T01:39:18;15.40;99.90
30889;DHT22;51092;50.874;7.024;2023-08-30T01:40:20;15.40;99.90
30889;DHT22;51092;50.874;7.024;2023-08-30T01:41:22;15.40;99.90
30889;DHT22;51092;50.874;7.024;2023-08-30T01:42:25;15.40;99.90
30889;DHT22;51092;50.874;7.024;2023-08-30T01:43:30;15.40;99.90
30889;DHT22;51092;50.874;7.024;2023-08-30T01:44:33;15.40;99.90
30889;DHT22;51092;50.874;7.024;2023-08-30T01:45:36;15.40;99.90
30889;DHT22;51092;50.874;7.024;2023-08-30T01:46:40;15.40;99.90
30889;DHT22;51092;50.874;7.024;2023-08-30T01:47:42;15.40;99.90
30889;DHT22;51092;50.874;7.024;2023-08-30T01:48:46;15.30;99.90
30889;DHT22;51092;50.874;7.024;2023-08-30T01:49:48;15.30;99.90
30889;DHT22;51092;50.874;7.024;2023-08-30T01:50:51;15.40;99.90
30889;DHT22;51092;50.874;7.024;2023-08-30T01:51:52;15.30;99.90
30889;DHT22;51092;50.874;7.024;2023-08-30T01:52:55;15.30;99.90
30889;DHT22;51092;50.874;7.024;2023-08-30T01:53:58;15.40;99.90
30889;DHT22;51092;50.874;7.024;2023-08-30T01:55:00;15.30;99.90
30889;DHT22;51092;50.874;7.024;2023-08-30T01:56:04;15.30;99.90
30889;DHT22;51092;50.874;7.024;2023-08-30T01:57:06;15.20;99.90
30889;DHT22;51092;50.874;7.024;2023-08-30T01:58:09;15.20;99.90
30889;DHT22;51092;50.874;7.024;2023-08-30T01:59:13;15.20;99.90
30889;DHT22;51092;50.874;7.024;2023-08-30T02:00:15;15.20;99.90
30889;DHT22;51092;50.874;7.024;2023-08-30T02:01:17;15.20;99.90
30889;DHT22;51092;50.874;7.024;2023-08-30T02:02:19;15.20;99.90
30889;DHT22;51092;50.874;7.024;2023-08-30T02:03:21;15.20;99.90
30889;DHT22;51092;50.874;7.024;2023-08-30T02:04:23;15.10;99.90
30889;DHT22;51092;50.874;7.024;2023-08-30T02:05:25;15.10;99.90
30889;DHT22;51092;50.874;7.024;2023-08-30T02:06:36;15.10;99.90
30889;DHT22;51092;50.874;7.024;2023-08-30T02:07:47;15.10;99.90
30889;DHT22;51092;50.874;7.024;2023-08-30T02:08:54;15.10;99.90
30889;DHT22;51092;50.874;7.024;2023-08-30T02:09:58;15.10;99.90
30889;DHT22;51092;50.874;7.024;2023-08-30T02:11:02;15.10;99.90
30889;DHT22;51092;50.874;7.024;2023-08-30T02:12:10;15.10;99.90
30889;DHT22;51092;50.874;7.024;2023-08-30T02:13:14;15.00;99.90
30889;DHT22;51092;50.874;7.024;2023-08-30T02:14:20;15.00;99.90
30889;DHT22;51092;50.874;7.024;2023-08-30T02:15:24;15.00;99.90
30889;DHT22;51092;50.874;7.024;2023-08-30T02:16:28;15.00;99.90
30889;DHT22;51092;50.874;7.024;2023-08-30T02:17:31;14.90;99.90
30889;DHT22;51092;50.874;7.024;2023-08-30T02:18:35;15.00;99.90
30889;DHT22;51092;50.874;7.024;2023-08-30T02:19:38;15.00;99.90
30889;DHT22;51092;50.874;7.024;2023-08-30T02:20:40;14.90;99.90
30889;DHT22;51092;50.874;7.024;2023-08-30T02:21:42;15.00;99.90
30889;DHT22;51092;50.874;7.024;2023-08-30T02:22:44;15.00;99.90
30889;DHT22;51092;50.874;7.024;2023-08-30T02:23:49;15.00;99.90
30889;DHT22;51092;50.874;7.024;2023-08-30T02:24:52;15.00;99.90
30889;DHT22;51092;50.874;7.024;2023-08-30T02:25:54;15.00;99.90
30889;DHT22;51092;50.874;7.024;2023-08-30T02:26:56;15.00;99.90
30889;DHT22;51092;50.874;7.024;2023-08-30T02:27:58;15.00;99.90
30889;DHT22;51092;50.874;7.024;2023-08-30T02:29:00;15.00;99.90
30889;DHT22;51092;50.874;7.024;2023-08-30T02:30:05;15.10;99.90
30889;DHT22;51092;50.874;7.024;2023-08-30T02:31:07;15.00;99.90
30889;DHT22;51092;50.874;7.024;2023-08-30T02:32:09;15.00;99.90
30889;DHT22;51092;50.874;7.024;2023-08-30T02:33:12;15.10;99.90
30889;DHT22;51092;50.874;7.024;2023-08-30T02:34:15;15.10;99.90
30889;DHT22;51092;50.874;7.024;2023-08-30T02:35:17;15.00;99.90
30889;DHT22;51092;50.874;7.024;2023-08-30T02:36:19;15.00;99.90
30889;DHT22;51092;50.874;7.024;2023-08-30T02:37:21;15.10;99.90
30889;DHT22;51092;50.874;7.024;2023-08-30T02:38:23;15.10;99.90
30889;DHT22;51092;50.874;7.024;2023-08-30T02:39:24;15.00;99.90
30889;DHT22;51092;50.874;7.024;2023-08-30T02:40:26;15.00;99.90
30889;DHT22;51092;50.874;7.024;2023-08-30T02:41:28;15.00;99.90
30889;DHT22;51092;50.874;7.024;2023-08-30T02:42:30;15.00;99.90
30889;DHT22;51092;50.874;7.024;2023-08-30T02:43:32;15.00;99.90
30889;DHT22;51092;50.874;7.024;2023-08-30T02:44:34;15.00;99.90
30889;DHT22;51092;50.874;7.024;2023-08-30T02:45:37;14.90;99.90
30889;DHT22;51092;50.874;7.024;2023-08-30T02:46:40;14.90;99.90
30889;DHT22;51092;50.874;7.024;2023-08-30T02:47:44;14.90;99.90
30889;DHT22;51092;50.874;7.024;2023-08-30T02:48:47;14.90;99.90
30889;DHT22;51092;50.874;7.024;2023-08-30T02:49:49;14.90;99.90
30889;DHT22;51092;50.874;7.024;2023-08-30T02:50:52;14.80;99.90
30889;DHT22;51092;50.874;7.024;2023-08-30T02:51:53;14.80;99.90
30889;DHT22;51092;50.874;7.024;2023-08-30T02:52:55;14.80;99.90
30889;DHT22;51092;50.874;7.024;2023-08-30T02:53:57;14.80;99.90
30889;DHT22;51092;50.874;7.024;2023-08-30T02:54:59;14.80;99.90
30889;DHT22;51092;50.874;7.024;2023-08-30T02:56:01;14.80;99.90
30889;DHT22;51092;50.874;7.024;2023-08-30T02:57:04;14.80;99.90
30889;DHT22;51092;50.874;7.024;2023-08-30T02:58:05;14.70;99.90
30889;DHT22;51092;50.874;7.024;2023-08-30T02:59:06;14.70;99.90
30889;DHT22;51092;50.874;7.024;2023-08-30T03:00:08;14.70;99.90
30889;DHT22;51092;50.874;7.024;2023-08-30T03:01:12;14.70;99.90
30889;DHT22;51092;50.874;7.024;2023-08-30T03:02:13;14.70;99.90
30889;DHT22;51092;50.874;7.024;2023-08-30T03:03:16;14.60;99.90
30889;DHT22;51092;50.874;7.024;2023-08-30T03:04:17;14.60;99.90
30889;DHT22;51092;50.874;7.024;2023-08-30T03:05:20;14.60;99.90
30889;DHT22;51092;50.874;7.024;2023-08-30T03:06:22;14.50;99.90
30889;DHT22;51092;50.874;7.024;2023-08-30T03:07:25;14.50;99.90
30889;DHT22;51092;50.874;7.024;2023-08-30T03:08:26;14.50;99.90
30889;DHT22;51092;50.874;7.024;2023-08-30T03:09:28;14.40;99.90
30889;DHT22;51092;50.874;7.024;2023-08-30T03:10:30;14.50;99.90
30889;DHT22;51092;50.874;7.024;2023-08-30T03:11:33;14.40;99.90
30889;DHT22;51092;50.874;7.024;2023-08-30T03:12:35;14.40;99.90
30889;DHT22;51092;50.874;7.024;2023-08-30T03:13:37;14.30;99.90
30889;DHT22;51092;50.874;7.024;2023-08-30T03:14:39;14.30;99.90
30889;DHT22;51092;50.874;7.024;2023-08-30T03:15:41;14.30;99.90
30889;DHT22;51092;50.874;7.024;2023-08-30T03:16:44;14.20;99.90
30889;DHT22;51092;50.874;7.024;2023-08-30T03:17:48;14.20;99.90
30889;DHT22;51092;50.874;7.024;2023-08-30T03:18:50;14.20;99.90
30889;DHT22;51092;50.874;7.024;2023-08-30T03:19:52;14.10;99.90
30889;DHT22;51092;50.874;7.024;2023-08-30T03:21:00;14.10;99.90
30889;DHT22;51092;50.874;7.024;2023-08-30T03:22:03;14.10;99.90
30889;DHT22;51092;50.874;7.024;2023-08-30T03:23:05;14.00;99.90
30889;DHT22;51092;50.874;7.024;2023-08-30T03:24:07;14.00;99.90
30889;DHT22;51092;50.874;7.024;2023-08-30T03:25:09;13.90;99.90
30889;DHT22;51092;50.874;7.024;2023-08-30T03:26:13;13.90;99.90
30889;DHT22;51092;50.874;7.024;2023-08-30T03:27:15;14.00;99.90
30889;DHT22;51092;50.874;7.024;2023-08-30T03:28:17;14.00;99.90
30889;DHT22;51092;50.874;7.024;2023-08-30T03:29:19;14.00;99.90
30889;DHT22;51092;50.874;7.024;2023-08-30T03:30:21;14.00;99.90
30889;DHT22;51092;50.874;7.024;2023-08-30T03:31:23;14.00;99.90
30889;DHT22;51092;50.874;7.024;2023-08-30T03:32:26;14.00;99.90
30889;DHT22;51092;50.874;7.024;2023-08-30T03:33:28;14.00;99.90
30889;DHT22;51092;50.874;7.024;2023-08-30T03:34:29;14.00;99.90
30889;DHT22;51092;50.874;7.024;2023-08-30T03:35:33;13.90;99.90
30889;DHT22;51092;50.874;7.024;2023-08-30T03:36:35;13.90;99.90
30889;DHT22;51092;50.874;7.024;2023-08-30T03:37:38;13.90;99.90
30889;DHT22;51092;50.874;7.024;2023-08-30T03:38:39;13.90;99.90
30889;DHT22;51092;50.874;7.024;2023-08-30T03:39:42;13.90;99.90
30889;DHT22;51092;50.874;7.024;2023-08-30T03:40:44;13.80;99.90
30889;DHT22;51092;50.874;7.024;2023-08-30T03:41:47;13.80;99.90
30889;DHT22;51092;50.874;7.024;2023-08-30T03:42:48;13.80;99.90
30889;DHT22;51092;50.874;7.024;2023-08-30T03:43:51;13.80;99.90
30889;DHT22;51092;50.874;7.024;2023-08-30T03:44:52;13.70;99.90
30889;DHT22;51092;50.874;7.024;2023-08-30T03:45:55;13.70;99.90
30889;DHT22;51092;50.874;7.024;2023-08-30T03:46:56;13.60;99.90
30889;DHT22;51092;50.874;7.024;2023-08-30T03:48:00;13.70;99.90
30889;DHT22;51092;50.874;7.024;2023-08-30T03:49:03;13.60;99.90
30889;DHT22;51092;50.874;7.024;2023-08-30T03:50:07;13.60;99.90
30889;DHT22;51092;50.874;7.024;2023-08-30T03:51:08;13.70;99.90
30889;DHT22;51092;50.874;7.024;2023-08-30T03:52:11;13.60;99.90
30889;DHT22;51092;50.874;7.024;2023-08-30T03:53:14;13.50;99.90
30889;DHT22;51092;50.874;7.024;2023-08-30T03:54:16;13.50;99.90
30889;DHT22;51092;50.874;7.024;2023-08-30T03:55:18;13.50;99.90
30889;DHT22;51092;50.874;7.024;2023-08-30T03:56:20;13.50;99.90
30889;DHT22;51092;50.874;7.024;2023-08-30T03:57:22;13.50;99.90
30889;DHT22;51092;50.874;7.024;2023-08-30T03:58:25;13.60;99.90
30889;DHT22;51092;50.874;7.024;2023-08-30T03:59:26;13.50;99.90
30889;DHT22;51092;50.874;7.024;2023-08-30T04:00:29;13.50;99.90
30889;DHT22;51092;50.874;7.024;2023-08-30T04:01:31;13.50;99.90
30889;DHT22;51092;50.874;7.024;2023-08-30T04:02:33;13.60;99.90
30889;DHT22;51092;50.874;7.024;2023-08-30T04:03:36;13.60;99.90
30889;DHT22;51092;50.874;7.024;2023-08-30T04:04:38;13.60;99.90
30889;DHT22;51092;50.874;7.024;2023-08-30T04:05:40;13.60;99.90
30889;DHT22;51092;50.874;7.024;2023-08-30T04:06:42;13.60;99.90
30889;DHT22;51092;50.874;7.024;2023-08-30T04:07:44;13.60;99.90
30889;DHT22;51092;50.874;7.024;2023-08-30T04:08:46;13.60;99.90
30889;DHT22;51092;50.874;7.024;2023-08-30T04:09:48;13.60;99.90
30889;DHT22;51092;50.874;7.024;2023-08-30T04:10:52;13.60;99.90
30889;DHT22;51092;50.874;7.024;2023-08-30T04:11:54;13.60;99.90
30889;DHT22;51092;50.874;7.024;2023-08-30T04:12:56;13.60;99.90
30889;DHT22;51092;50.874;7.024;2023-08-30T04:13:58;13.60;99.90
30889;DHT22;51092;50.874;7.024;2023-08-30T04:15:01;13.60;99.90
30889;DHT22;51092;50.874;7.024;2023-08-30T04:16:03;13.60;99.90
30889;DHT22;51092;50.874;7.024;2023-08-30T04:17:05;13.60;99.90
30889;DHT22;51092;50.874;7.024;2023-08-30T04:18:07;13.60;99.90
30889;DHT22;51092;50.874;7.024;2023-08-30T04:19:11;13.60;99.90
30889;DHT22;51092;50.874;7.024;2023-08-30T04:20:12;13.60;99.90
30889;DHT22;51092;50.874;7.024;2023-08-30T04:21:15;13.60;99.90
30889;DHT22;51092;50.874;7.024;2023-08-30T04:22:16;13.60;99.90
30889;DHT22;51092;50.874;7.024;2023-08-30T04:23:19;13.60;99.90
30889;DHT22;51092;50.874;7.024;2023-08-30T04:24:20;13.60;99.90
30889;DHT22;51092;50.874;7.024;2023-08-30T04:25:23;13.60;99.90
30889;DHT22;51092;50.874;7.024;2023-08-30T04:26:24;13.60;99.90
30889;DHT22;51092;50.874;7.024;2023-08-30T04:27:27;13.60;99.90
30889;DHT22;51092;50.874;7.024;2023-08-30T04:28:28;13.60;99.90
30889;DHT22;51092;50.874;7.024;2023-08-30T04:29:31;13.70;99.90
30889;DHT22;51092;50.874;7.024;2023-08-30T04:30:32;13.70;99.90
30889;DHT22;51092;50.874;7.024;2023-08-30T04:31:35;13.70;99.90
30889;DHT22;51092;50.874;7.024;2023-08-30T04:32:36;13.70;99.90
30889;DHT22;51092;50.874;7.024;2023-08-30T04:33:39;13.70;99.90
30889;DHT22;51092;50.874;7.024;2023-08-30T04:34:42;13.70;99.90
30889;DHT22;51092;50.874;7.024;2023-08-30T04:35:50;13.70;99.90
30889;DHT22;51092;50.874;7.024;2023-08-30T04:36:51;13.70;99.90
30889;DHT22;51092;50.874;7.024;2023-08-30T04:37:54;13.70;99.90
30889;DHT22;51092;50.874;7.024;2023-08-30T04:38:55;13.70;99.90
30889;DHT22;51092;50.874;7.024;2023-08-30T04:39:58;13.70;99.90
30889;DHT22;51092;50.874;7.024;2023-08-30T04:40:59;13.70;99.90
30889;DHT22;51092;50.874;7.024;2023-08-30T04:42:00;13.70;99.90
30889;DHT22;51092;50.874;7.024;2023-08-30T04:43:04;13.70;99.90
30889;DHT22;51092;50.874;7.024;2023-08-30T04:44:05;13.70;99.90
30889;DHT22;51092;50.874;7.024;2023-08-30T04:45:08;13.70;99.90
30889;DHT22;51092;50.874;7.024;2023-08-30T04:46:11;13.60;99.90
30889;DHT22;51092;50.874;7.024;2023-08-30T04:47:13;13.60;99.90
30889;DHT22;51092;50.874;7.024;2023-08-30T04:48:15;13.60;99.90
30889;DHT22;51092;50.874;7.024;2023-08-30T04:49:17;13.60;99.90
30889;DHT22;51092;50.874;7.024;2023-08-30T04:50:20;13.60;99.90
30889;DHT22;51092;50.874;7.024;2023-08-30T04:51:22;13.60;99.90
30889;DHT22;51092;50.874;7.024;2023-08-30T04:52:23;13.60;99.90
30889;DHT22;51092;50.874;7.024;2023-08-30T04:53:25;13.60;99.90
30889;DHT22;51092;50.874;7.024;2023-08-30T04:54:26;13.50;99.90
30889;DHT22;51092;50.874;7.024;2023-08-30T04:55:28;13.50;99.90
30889;DHT22;51092;50.874;7.024;2023-08-30T04:56:30;13.50;99.90
30889;DHT22;51092;50.874;7.024;2023-08-30T04:57:32;13.50;99.90
30889;DHT22;51092;50.874;7.024;2023-08-30T04:58:33;13.50;99.90
30889;DHT22;51092;50.874;7.024;2023-08-30T04:59:35;13.40;99.90
30889;DHT22;51092;50.874;7.024;2023-08-30T05:00:36;13.50;99.90
30889;DHT22;51092;50.874;7.024;2023-08-30T05:01:38;13.50;99.90
30889;DHT22;51092;50.874;7.024;2023-08-30T05:02:43;13.50;99.90
30889;DHT22;51092;50.874;7.024;2023-08-30T05:03:47;13.50;99.90
30889;DHT22;51092;50.874;7.024;2023-08-30T05:04:49;13.50;99.90
30889;DHT22;51092;50.874;7.024;2023-08-30T05:05:52;13.50;99.90
30889;DHT22;51092;50.874;7.024;2023-08-30T05:06:54;13.50;99.90
30889;DHT22;51092;50.874;7.024;2023-08-30T05:07:56;13.50;99.90
30889;DHT22;51092;50.874;7.024;2023-08-30T05:08:58;13.40;99.90
30889;DHT22;51092;50.874;7.024;2023-08-30T05:10:01;13.40;99.90
30889;DHT22;51092;50.874;7.024;2023-08-30T05:11:02;13.40;99.90
30889;DHT22;51092;50.874;7.024;2023-08-30T05:12:05;13.40;99.90
30889;DHT22;51092;50.874;7.024;2023-08-30T05:13:07;13.40;99.90
30889;DHT22;51092;50.874;7.024;2023-08-30T05:14:09;13.40;99.90
30889;DHT22;51092;50.874;7.024;2023-08-30T05:15:14;13.40;99.90
30889;DHT22;51092;50.874;7.024;2023-08-30T05:16:16;13.40;99.90
30889;DHT22;51092;50.874;7.024;2023-08-30T05:17:18;13.40;99.90
30889;DHT22;51092;50.874;7.024;2023-08-30T05:18:20;13.40;99.90
30889;DHT22;51092;50.874;7.024;2023-08-30T05:19:22;13.40;99.90
30889;DHT22;51092;50.874;7.024;2023-08-30T05:20:24;13.40;99.90
30889;DHT22;51092;50.874;7.024;2023-08-30T05:21:27;13.40;99.90
30889;DHT22;51092;50.874;7.024;2023-08-30T05:22:29;13.40;99.90
30889;DHT22;51092;50.874;7.024;2023-08-30T05:23:32;13.40;99.90
30889;DHT22;51092;50.874;7.024;2023-08-30T05:24:33;13.40;99.90
30889;DHT22;51092;50.874;7.024;2023-08-30T05:25:36;13.40;99.90
30889;DHT22;51092;50.874;7.024;2023-08-30T05:26:37;13.40;99.90
30889;DHT22;51092;50.874;7.024;2023-08-30T05:27:40;13.30;99.90
30889;DHT22;51092;50.874;7.024;2023-08-30T05:28:41;13.30;99.90
30889;DHT22;51092;50.874;7.024;2023-08-30T05:29:44;13.30;99.90
30889;DHT22;51092;50.874;7.024;2023-08-30T05:30:45;13.40;99.90
30889;DHT22;51092;50.874;7.024;2023-08-30T05:31:48;13.40;99.90
30889;DHT22;51092;50.874;7.024;2023-08-30T05:32:49;13.30;99.90
30889;DHT22;51092;50.874;7.024;2023-08-30T05:33:52;13.40;99.90
30889;DHT22;51092;50.874;7.024;2023-08-30T05:34:53;13.30;99.90
30889;DHT22;51092;50.874;7.024;2023-08-30T05:35:55;13.30;99.90
30889;DHT22;51092;50.874;7.024;2023-08-30T05:36:59;13.30;99.90
30889;DHT22;51092;50.874;7.024;2023-08-30T05:38:00;13.30;99.90
30889;DHT22;51092;50.874;7.024;2023-08-30T05:39:03;13.40;99.90
30889;DHT22;51092;50.874;7.024;2023-08-30T05:40:06;13.40;99.90
30889;DHT22;51092;50.874;7.024;2023-08-30T05:41:09;13.40;99.90
30889;DHT22;51092;50.874;7.024;2023-08-30T05:42:10;13.40;99.90
30889;DHT22;51092;50.874;7.024;2023-08-30T05:43:14;13.30;99.90
30889;DHT22;51092;50.874;7.024;2023-08-30T05:44:16;13.40;99.90
30889;DHT22;51092;50.874;7.024;2023-08-30T05:45:19;13.30;99.90
30889;DHT22;51092;50.874;7.024;2023-08-30T05:46:20;13.30;99.90
30889;DHT22;51092;50.874;7.024;2023-08-30T05:47:23;13.30;99.90
30889;DHT22;51092;50.874;7.024;2023-08-30T05:48:24;13.30;99.90
30889;DHT22;51092;50.874;7.024;2023-08-30T05:49:27;13.30;99.90
30889;DHT22;51092;50.874;7.024;2023-08-30T05:50:28;13.30;99.90
30889;DHT22;51092;50.874;7.024;2023-08-30T05:51:31;13.30;99.90
30889;DHT22;51092;50.874;7.024;2023-08-30T05:52:33;13.30;99.90
30889;DHT22;51092;50.874;7.024;2023-08-30T05:53:36;13.30;99.90
30889;DHT22;51092;50.874;7.024;2023-08-30T05:54:38;13.30;99.90
30889;DHT22;51092;50.874;7.024;2023-08-30T05:55:40;13.30;99.90
30889;DHT22;51092;50.874;7.024;2023-08-30T05:56:42;13.30;99.90
30889;DHT22;51092;50.874;7.024;2023-08-30T05:57:45;13.30;99.90
30889;DHT22;51092;50.874;7.024;2023-08-30T05:58:46;13.30;99.90
30889;DHT22;51092;50.874;7.024;2023-08-30T05:59:49;13.30;99.90
30889;DHT22;51092;50.874;7.024;2023-08-30T06:00:50;13.30;99.90
30889;DHT22;51092;50.874;7.024;2023-08-30T06:01:52;13.40;99.90
30889;DHT22;51092;50.874;7.024;2023-08-30T06:02:54;13.40;99.90
30889;DHT22;51092;50.874;7.024;2023-08-30T06:03:56;13.40;99.90
30889;DHT22;51092;50.874;7.024;2023-08-30T06:04:58;13.40;99.90
30889;DHT22;51092;50.874;7.024;2023-08-30T06:06:00;13.40;99.90
30889;DHT22;51092;50.874;7.024;2023-08-30T06:07:03;13.40;99.90
30889;DHT22;51092;50.874;7.024;2023-08-30T06:08:07;13.40;99.90
30889;DHT22;51092;50.874;7.024;2023-08-30T06:09:09;13.40;99.90
30889;DHT22;51092;50.874;7.024;2023-08-30T06:10:12;13.40;99.90
30889;DHT22;51092;50.874;7.024;2023-08-30T06:11:14;13.40;99.90
30889;DHT22;51092;50.874;7.024;2023-08-30T06:12:16;13.50;99.90
30889;DHT22;51092;50.874;7.024;2023-08-30T06:13:18;13.50;99.90
30889;DHT22;51092;50.874;7.024;2023-08-30T06:14:21;13.50;99.90
30889;DHT22;51092;50.874;7.024;2023-08-30T06:15:23;13.50;99.90
30889;DHT22;51092;50.874;7.024;2023-08-30T06:16:27;13.50;99.90
30889;DHT22;51092;50.874;7.024;2023-08-30T06:17:29;13.60;99.90
30889;DHT22;51092;50.874;7.024;2023-08-30T06:18:31;13.50;99.90
30889;DHT22;51092;50.874;7.024;2023-08-30T06:19:33;13.60;99.90
30889;DHT22;51092;50.874;7.024;2023-08-30T06:20:35;13.60;99.90
30889;DHT22;51092;50.874;7.024;2023-08-30T06:21:40;13.60;99.90
30889;DHT22;51092;50.874;7.024;2023-08-30T06:22:43;13.60;99.90
30889;DHT22;51092;50.874;7.024;2023-08-30T06:23:46;13.60;99.90
30889;DHT22;51092;50.874;7.024;2023-08-30T06:24:48;13.70;99.90
30889;DHT22;51092;50.874;7.024;2023-08-30T06:25:53;13.70;99.90
30889;DHT22;51092;50.874;7.024;2023-08-30T06:26:55;13.70;99.90
30889;DHT22;51092;50.874;7.024;2023-08-30T06:27:59;13.70;99.90
30889;DHT22;51092;50.874;7.024;2023-08-30T06:29:02;13.70;99.90
30889;DHT22;51092;50.874;7.024;2023-08-30T06:30:06;13.70;99.90
30889;DHT22;51092;50.874;7.024;2023-08-30T06:31:08;13.80;99.90
30889;DHT22;51092;50.874;7.024;2023-08-30T06:32:11;13.80;99.90
30889;DHT22;51092;50.874;7.024;2023-08-30T06:33:12;13.80;99.90
30889;DHT22;51092;50.874;7.024;2023-08-30T06:34:15;13.80;99.90
30889;DHT22;51092;50.874;7.024;2023-08-30T06:35:16;13.90;99.90
30889;DHT22;51092;50.874;7.024;2023-08-30T06:36:18;13.90;99.90
30889;DHT22;51092;50.874;7.024;2023-08-30T06:37:20;13.90;99.90